Dades meteomassalio
Diari Summary for Febrer 10, 2018 Units:  English    Metric   Both
« Previous Day
Next Day »
Diari Semanal Mensual Anual Personalitzat
  Maxima: Minima: Mijana:
Temperatura: TemperatureC °F 2.8 °F 5.4 °F
Rosada: DewpointC °F -1.2 °F 0.4 °F
Humitat: Humidity % 54 % 70 %
Velocitat del vent: WindSpeedKMH mph 13.0 mph 32.5 mph
Racha vent: WindSpeedGustKMH mph - -
Vent:- - WNW
Pressio: PressurehPa in 1020.5 in -
Pluja: 0.0 in    
Historical Graphs
 
 
Tabular Data for Febrer 10, 2018
Time Temperature Dew Point Pressure Wind Wind Speed Wind Gust Humidity Rainfall Rate (Hourly) solar Conditions
TemperatureC °F DewpointC °F PressurehPa in Calm     Humidity % HourlyPrecipMM in SolarRadiationWatts/m^2 W/m2 Conditions
00:04 5.0 °F 1.7 °F 1022.2 in NNW 33.8 mph 33.8 mph 79 % 0.0 in 0.0 W/m2 RA
00:09 5.0 °F 1.7 °F 1022.6 in NNW 42.6 mph 42.6 mph 79 % 0.0 in 0.0 W/m2 CLR
00:14 5.0 °F 1.7 °F 1022.6 in NW 24.1 mph 24.1 mph 79 % 0.0 in 0.0 W/m2 CLR
00:19 5.0 °F 1.5 °F 1022.6 in NNW 37.0 mph 37.0 mph 78 % 0.0 in 0.0 W/m2 CLR
00:24 5.0 °F 1.3 °F 1022.9 in North 40.2 mph 40.2 mph 77 % 0.0 in 0.0 W/m2 CLR
00:29 5.0 °F 1.1 °F 1022.9 in NNW 35.2 mph 35.2 mph 76 % 0.0 in 0.0 W/m2 CLR
00:34 4.4 °F 0.6 °F 1022.9 in North 35.4 mph 35.4 mph 76 % 0.0 in 0.0 W/m2 CLR
00:39 4.4 °F 0.4 °F 1022.9 in North 35.2 mph 35.2 mph 75 % 0.0 in 0.0 W/m2 CLR
00:44 4.4 °F 0.4 °F 1022.9 in NNW 33.8 mph 33.8 mph 75 % 0.0 in 0.0 W/m2 CLR
00:49 4.4 °F 0.4 °F 1022.9 in NNW 33.3 mph 33.3 mph 75 % 0.0 in 0.0 W/m2 CLR
00:54 4.4 °F 0.4 °F 1022.9 in NW 46.3 mph 46.3 mph 75 % 0.0 in 0.0 W/m2 CLR
00:59 4.4 °F 0.4 °F 1022.9 in NNW 37.0 mph 37.0 mph 75 % 0.0 in 0.0 W/m2 CLR
01:04 4.4 °F 0.4 °F 1022.9 in NW 40.7 mph 40.7 mph 75 % 0.0 in 0.0 W/m2 CLR
01:09 4.4 °F 0.4 °F 1022.9 in NW 37.0 mph 37.0 mph 75 % 0.0 in 0.0 W/m2 CLR
01:14 4.4 °F 0.6 °F 1022.9 in North 33.3 mph 33.3 mph 76 % 0.0 in 0.0 W/m2 CLR
01:19 4.4 °F 0.6 °F 1022.9 in North 33.3 mph 33.3 mph 76 % 0.0 in 0.0 W/m2 CLR
01:24 4.4 °F 0.6 °F 1022.9 in NW 29.6 mph 29.6 mph 76 % 0.0 in 0.0 W/m2 CLR
01:29 4.4 °F 0.4 °F 1023.2 in NNW 46.3 mph 46.3 mph 75 % 0.0 in 0.0 W/m2 CLR
01:34 4.4 °F 0.4 °F 1023.2 in NNW 38.9 mph 38.9 mph 75 % 0.0 in 0.0 W/m2 CLR
01:39 4.4 °F 0.4 °F 1022.9 in NNW 37.0 mph 37.0 mph 75 % 0.0 in 0.0 W/m2 CLR
01:44 4.4 °F 0.4 °F 1022.9 in North 41.8 mph 41.8 mph 75 % 0.0 in 0.0 W/m2 CLR
01:49 3.9 °F -0.2 °F 1022.9 in NW 46.3 mph 46.3 mph 75 % 0.0 in 0.0 W/m2 CLR
01:54 3.9 °F -0.2 °F 1022.9 in NW 44.4 mph 44.4 mph 75 % 0.0 in 0.0 W/m2 CLR
01:59 3.9 °F -0.2 °F 1022.9 in NNW 35.4 mph 35.4 mph 75 % 0.0 in 0.0 W/m2 CLR
02:04 3.9 °F -0.2 °F 1022.9 in NNW 35.2 mph 35.2 mph 75 % 0.0 in 0.0 W/m2 CLR
02:09 3.9 °F -0.3 °F 1022.9 in NW 33.8 mph 33.8 mph 74 % 0.0 in 0.0 W/m2 CLR
02:14 3.9 °F -0.3 °F 1022.9 in NNW 35.4 mph 35.4 mph 74 % 0.0 in 0.0 W/m2 CLR
02:20 3.9 °F -0.3 °F 1022.9 in NNW 22.2 mph 22.2 mph 74 % 0.0 in 0.0 W/m2 CLR
02:25 3.9 °F -0.2 °F 1022.9 in North 38.6 mph 38.6 mph 75 % 0.0 in 0.0 W/m2 CLR
02:30 3.9 °F -0.2 °F 1022.9 in NW 27.8 mph 27.8 mph 75 % 0.0 in 0.0 W/m2 CLR
02:35 3.9 °F -0.2 °F 1022.9 in NNW 31.5 mph 34.6 mph 75 % 0.0 in 0.0 W/m2 CLR
02:40 3.9 °F -0.2 °F 1022.9 in NNW 31.5 mph 31.5 mph 75 % 0.0 in 0.0 W/m2 CLR
02:45 3.3 °F -0.7 °F 1022.9 in WNW 31.5 mph 31.5 mph 75 % 0.0 in 0.0 W/m2 CLR
02:50 3.3 °F -0.9 °F 1022.9 in NW 35.4 mph 35.4 mph 74 % 0.0 in 0.0 W/m2 CLR
02:55 3.9 °F -0.3 °F 1022.9 in NNW 29.6 mph 29.6 mph 74 % 0.0 in 0.0 W/m2 CLR
03:00 3.9 °F -0.3 °F 1022.9 in NW 24.1 mph 24.1 mph 74 % 0.0 in 0.0 W/m2 CLR
03:05 3.3 °F -0.9 °F 1022.9 in NW 25.9 mph 25.9 mph 74 % 0.0 in 0.0 W/m2 CLR
03:10 3.3 °F -0.9 °F 1022.6 in NNW 40.7 mph 40.7 mph 74 % 0.0 in 0.0 W/m2 CLR
03:15 3.3 °F -0.7 °F 1022.6 in North 37.0 mph 37.0 mph 75 % 0.0 in 0.0 W/m2 CLR
03:20 3.3 °F -0.9 °F 1022.6 in North 38.9 mph 38.9 mph 74 % 0.0 in 0.0 W/m2 CLR
03:25 3.3 °F -0.9 °F 1022.2 in NNW 46.3 mph 46.3 mph 74 % 0.0 in 0.0 W/m2 CLR
03:30 3.3 °F -0.9 °F 1022.2 in NNW 42.6 mph 42.6 mph 74 % 0.0 in 0.0 W/m2 CLR
03:35 3.3 °F -0.9 °F 1022.2 in NNW 46.3 mph 46.3 mph 74 % 0.0 in 0.0 W/m2 CLR
03:40 3.3 °F -0.9 °F 1022.2 in NNW 27.8 mph 29.6 mph 74 % 0.0 in 0.0 W/m2 CLR
03:45 3.3 °F -0.9 °F 1022.2 in North 37.0 mph 37.0 mph 74 % 0.0 in 0.0 W/m2 CLR
03:50 3.3 °F -0.9 °F 1021.9 in North 35.2 mph 35.2 mph 74 % 0.0 in 0.0 W/m2 CLR
03:55 3.3 °F -0.9 °F 1021.9 in North 32.2 mph 32.2 mph 74 % 0.0 in 0.0 W/m2 CLR
04:00 3.3 °F -0.7 °F 1021.9 in North 31.5 mph 31.5 mph 75 % 0.0 in 0.0 W/m2 CLR
04:05 3.3 °F -0.7 °F 1022.2 in NNW 31.5 mph 31.5 mph 75 % 0.0 in 0.0 W/m2 CLR
04:10 3.3 °F -0.7 °F 1022.2 in NW 35.4 mph 35.4 mph 75 % 0.0 in 0.0 W/m2 CLR
04:15 3.3 °F -0.7 °F 1022.2 in NW 24.1 mph 24.1 mph 75 % 0.0 in 0.0 W/m2 CLR
04:20 3.3 °F -0.7 °F 1022.2 in NNW 42.6 mph 42.6 mph 75 % 0.0 in 0.0 W/m2 CLR
04:25 3.3 °F -0.7 °F 1022.2 in NNW 31.5 mph 31.5 mph 75 % 0.0 in 0.0 W/m2 CLR
04:30 3.3 °F -0.7 °F 1022.2 in NNW 40.7 mph 40.7 mph 75 % 0.0 in 0.0 W/m2 CLR
04:35 3.3 °F -0.7 °F 1022.2 in North 31.5 mph 31.5 mph 75 % 0.0 in 0.0 W/m2 CLR
04:40 3.3 °F -0.7 °F 1022.2 in NW 27.8 mph 27.8 mph 75 % 0.0 in 0.0 W/m2 CLR
04:45 3.3 °F -0.7 °F 1022.2 in NNW 35.2 mph 35.2 mph 75 % 0.0 in 0.0 W/m2 CLR
04:50 3.3 °F -0.7 °F 1022.2 in North 33.3 mph 33.3 mph 75 % 0.0 in 0.0 W/m2 CLR
04:55 3.3 °F -0.7 °F 1022.2 in North 43.4 mph 43.4 mph 75 % 0.0 in 0.0 W/m2 CLR
05:00 3.3 °F -0.7 °F 1022.2 in NNW 42.6 mph 42.6 mph 75 % 0.0 in 0.0 W/m2 CLR
05:05 3.3 °F -0.5 °F 1022.2 in NNW 35.2 mph 35.2 mph 76 % 0.0 in 0.0 W/m2 CLR
05:10 3.3 °F -0.5 °F 1022.2 in North 40.7 mph 40.7 mph 76 % 0.0 in 0.0 W/m2 CLR
05:15 3.3 °F -0.5 °F 1022.2 in NW 33.3 mph 33.3 mph 76 % 0.0 in 0.0 W/m2 CLR
05:20 3.3 °F -0.5 °F 1022.6 in NNW 31.5 mph 31.5 mph 76 % 0.0 in 0.0 W/m2 CLR
05:25 3.3 °F -0.5 °F 1022.6 in North 35.2 mph 35.2 mph 76 % 0.0 in 0.0 W/m2 CLR
05:30 3.3 °F -0.5 °F 1022.6 in North 27.8 mph 27.8 mph 76 % 0.0 in 0.0 W/m2 CLR
05:35 3.3 °F -0.5 °F 1022.6 in North 40.7 mph 40.7 mph 76 % 0.0 in 0.0 W/m2 CLR
05:40 3.3 °F -0.5 °F 1022.6 in NNW 31.5 mph 31.5 mph 76 % 0.0 in 0.0 W/m2 CLR
05:45 3.3 °F -0.5 °F 1022.6 in NNW 40.7 mph 40.7 mph 76 % 0.0 in 0.0 W/m2 CLR
05:50 2.8 °F -1.1 °F 1022.6 in North 30.6 mph 30.6 mph 76 % 0.0 in 0.0 W/m2 CLR
05:55 2.8 °F -1.1 °F 1022.2 in NNW 42.6 mph 42.6 mph 76 % 0.0 in 0.0 W/m2 CLR
06:00 2.8 °F -1.1 °F 1022.6 in NNW 42.6 mph 42.6 mph 76 % 0.0 in 0.0 W/m2 CLR
06:05 2.8 °F -0.8 °F 1022.2 in North 29.6 mph 29.6 mph 77 % 0.0 in 0.0 W/m2 CLR
06:10 2.8 °F -0.8 °F 1022.6 in NNW 24.1 mph 24.1 mph 77 % 0.0 in 0.0 W/m2 CLR
06:15 2.8 °F -0.8 °F 1022.2 in NNW 25.9 mph 25.9 mph 77 % 0.0 in 0.0 W/m2 CLR
06:20 2.8 °F -0.8 °F 1022.2 in North 27.8 mph 27.8 mph 77 % 0.0 in 0.0 W/m2 CLR
06:25 2.8 °F -1.1 °F 1022.2 in NNW 31.5 mph 31.5 mph 76 % 0.0 in 0.0 W/m2 CLR
06:30 2.8 °F -1.2 °F 1022.2 in NW 27.8 mph 27.8 mph 75 % 0.0 in 0.0 W/m2 CLR
06:35 2.8 °F -1.1 °F 1022.2 in NNW 20.4 mph 20.4 mph 76 % 0.0 in 0.0 W/m2 CLR
06:40 2.8 °F -1.1 °F 1022.2 in NNW 33.8 mph 33.8 mph 76 % 0.0 in 0.0 W/m2 CLR
06:45 2.8 °F -1.2 °F 1022.2 in NW 37.0 mph 37.0 mph 75 % 0.0 in 0.0 W/m2 CLR
06:50 2.8 °F -1.2 °F 1022.2 in NNW 22.5 mph 22.5 mph 75 % 0.0 in 0.0 W/m2 CLR
06:55 2.8 °F -1.1 °F 1022.2 in North 29.6 mph 29.6 mph 76 % 0.0 in 0.0 W/m2 CLR
07:00 2.8 °F -1.1 °F 1022.2 in North 31.5 mph 31.5 mph 76 % 0.0 in 0.0 W/m2 CLR
07:05 2.8 °F -0.8 °F 1021.9 in North 27.8 mph 27.8 mph 77 % 0.0 in 0.0 W/m2 CLR
07:10 2.8 °F -0.8 °F 1021.9 in NNW 37.0 mph 37.0 mph 77 % 0.0 in 0.0 W/m2 CLR
07:15 2.8 °F -0.8 °F 1021.9 in NW 29.6 mph 29.6 mph 77 % 0.0 in 0.0 W/m2 CLR
07:20 2.8 °F -0.8 °F 1022.2 in NNW 37.0 mph 37.0 mph 77 % 0.0 in 0.0 W/m2 CLR
07:25 2.8 °F -0.8 °F 1022.2 in NNW 24.1 mph 24.1 mph 77 % 0.0 in 0.0 W/m2 CLR
07:30 2.8 °F -0.8 °F 1022.2 in NNW 33.3 mph 33.3 mph 77 % 0.0 in 0.0 W/m2 CLR
07:35 2.8 °F -0.8 °F 1022.6 in North 35.2 mph 35.2 mph 77 % 0.0 in 0.0 W/m2 CLR
07:40 2.8 °F -0.8 °F 1022.6 in NNW 38.9 mph 38.9 mph 77 % 0.0 in 0.0 W/m2 CLR
07:45 2.8 °F -0.8 °F 1022.6 in North 31.5 mph 31.5 mph 77 % 0.0 in 0.0 W/m2 CLR
07:50 2.8 °F -0.8 °F 1022.6 in North 31.5 mph 31.5 mph 77 % 0.0 in 0.0 W/m2 CLR
07:55 2.8 °F -0.7 °F 1022.6 in North 25.9 mph 25.9 mph 78 % 0.0 in 0.0 W/m2 CLR
08:00 2.8 °F -0.7 °F 1022.6 in NNW 32.2 mph 32.2 mph 78 % 0.0 in 5.0 W/m2 OVC
08:05 2.8 °F -0.7 °F 1022.6 in North 24.1 mph 24.1 mph 78 % 0.0 in 7.0 W/m2 BKN
08:10 2.8 °F -0.7 °F 1022.9 in North 24.1 mph 24.1 mph 78 % 0.0 in 9.0 W/m2 BKN
08:15 2.8 °F -0.7 °F 1022.9 in NNW 31.5 mph 31.5 mph 78 % 0.0 in 12.0 W/m2 BKN
08:20 2.8 °F -0.7 °F 1022.9 in North 25.9 mph 25.9 mph 78 % 0.0 in 16.0 W/m2 BKN
08:25 2.8 °F -0.7 °F 1022.9 in North 25.9 mph 25.9 mph 78 % 0.0 in 18.0 W/m2 BKN
08:30 2.8 °F -0.7 °F 1022.9 in NNW 37.0 mph 37.0 mph 78 % 0.0 in 23.0 W/m2 BKN
08:35 2.8 °F -0.7 °F 1022.9 in North 29.6 mph 29.6 mph 78 % 0.0 in 30.0 W/m2 BKN
08:40 2.8 °F -0.7 °F 1023.2 in NNW 42.6 mph 42.6 mph 78 % 0.0 in 37.0 W/m2 BKN
08:46 2.8 °F -0.8 °F 1023.2 in North 37.0 mph 37.0 mph 77 % 0.0 in 46.0 W/m2 BKN
08:51 3.3 °F -0.3 °F 1023.2 in North 31.5 mph 31.5 mph 77 % 0.0 in 60.0 W/m2 SCT
08:56 3.3 °F -0.3 °F 1023.2 in NNW 29.6 mph 29.6 mph 77 % 0.0 in 77.0 W/m2 FEW
09:01 3.3 °F -0.3 °F 1022.9 in NNW 35.2 mph 35.2 mph 77 % 0.0 in 95.0 W/m2 CLR
09:06 3.3 °F -0.3 °F 1022.9 in NNW 33.3 mph 33.3 mph 77 % 0.0 in 113.0 W/m2 CLR
09:11 3.3 °F -0.3 °F 1022.9 in North 37.0 mph 37.0 mph 77 % 0.0 in 130.0 W/m2 CLR
09:16 3.3 °F -0.5 °F 1022.9 in North 33.3 mph 33.3 mph 76 % 0.0 in 134.0 W/m2 CLR
09:21 3.9 °F 0.1 °F 1023.2 in NNW 30.6 mph 30.6 mph 76 % 0.0 in 162.0 W/m2 CLR
09:26 3.9 °F 0.1 °F 1023.2 in North 27.4 mph 27.4 mph 76 % 0.0 in 183.0 W/m2 CLR
09:31 3.9 °F 0.1 °F 1022.9 in North 33.8 mph 33.8 mph 76 % 0.0 in 137.0 W/m2 CLR
09:36 3.9 °F 0.1 °F 1022.9 in NNW 35.2 mph 35.2 mph 76 % 0.0 in 218.0 W/m2 CLR
09:41 3.9 °F -0.2 °F 1022.9 in North 42.6 mph 42.6 mph 75 % 0.0 in 234.0 W/m2 CLR
09:46 4.4 °F 0.6 °F 1022.9 in North 30.6 mph 30.6 mph 76 % 0.0 in 250.0 W/m2 CLR
09:51 4.4 °F 0.4 °F 1022.9 in NNW 35.2 mph 35.2 mph 75 % 0.0 in 267.0 W/m2 CLR
09:56 4.4 °F 0.2 °F 1022.9 in NNW 37.0 mph 37.0 mph 74 % 0.0 in 281.0 W/m2 CLR
10:01 4.4 °F 0.2 °F 1023.2 in North 37.0 mph 37.0 mph 74 % 0.0 in 294.0 W/m2 CLR
10:06 5.0 °F 0.6 °F 1023.2 in NNW 38.9 mph 38.9 mph 73 % 0.0 in 308.0 W/m2 CLR
10:11 5.0 °F 0.4 °F 1022.9 in North 42.6 mph 42.6 mph 72 % 0.0 in 323.0 W/m2 CLR
10:16 5.0 °F 0.4 °F 1022.9 in North 50.0 mph 50.0 mph 72 % 0.0 in 336.0 W/m2 CLR
10:21 5.0 °F 0.4 °F 1022.9 in North 37.0 mph 37.0 mph 72 % 0.0 in 350.0 W/m2 CLR
10:26 5.6 °F 0.7 °F 1022.9 in NNW 48.3 mph 48.3 mph 71 % 0.0 in 362.0 W/m2 CLR
10:31 5.6 °F 0.9 °F 1022.9 in NNE 31.5 mph 31.5 mph 72 % 0.0 in 381.0 W/m2 CLR
10:36 5.6 °F 0.7 °F 1022.9 in North 42.6 mph 42.6 mph 71 % 0.0 in 401.0 W/m2 CLR
10:41 5.6 °F 0.7 °F 1022.6 in NNW 37.0 mph 37.0 mph 71 % 0.0 in 406.0 W/m2 CLR
10:46 5.6 °F 0.5 °F 1022.9 in NNE 38.9 mph 38.9 mph 70 % 0.0 in 424.0 W/m2 CLR
10:51 6.1 °F 1.1 °F 1022.9 in North 44.4 mph 44.4 mph 70 % 0.0 in 429.0 W/m2 CLR
10:56 6.1 °F 0.8 °F 1022.9 in North 51.8 mph 51.8 mph 69 % 0.0 in 436.0 W/m2 CLR
11:01 6.1 °F 0.8 °F 1022.9 in North 46.3 mph 46.3 mph 69 % 0.0 in 446.0 W/m2 CLR
11:06 6.1 °F 1.1 °F 1022.9 in NNE 27.8 mph 27.8 mph 70 % 0.0 in 459.0 W/m2 CLR
11:11 6.7 °F 0.9 °F 1023.2 in NNE 44.4 mph 44.4 mph 67 % 0.0 in 478.0 W/m2 CLR
11:16 6.7 °F 1.4 °F 1023.2 in NE 42.6 mph 42.6 mph 69 % 0.0 in 512.0 W/m2 CLR
11:21 6.7 °F 0.9 °F 1023.6 in NNE 37.0 mph 37.0 mph 67 % 0.0 in 98.0 W/m2 CLR
11:26 6.7 °F 1.4 °F 1023.6 in NNE 29.6 mph 29.6 mph 69 % 0.0 in 568.0 W/m2 CLR
11:31 6.7 °F 1.2 °F 1023.2 in North 27.4 mph 27.4 mph 68 % 0.0 in 519.0 W/m2 CLR
11:36 6.7 °F 0.6 °F 1023.6 in NNE 42.6 mph 42.6 mph 65 % 0.0 in 524.0 W/m2 CLR
11:41 6.7 °F 0.8 °F 1023.6 in North 42.6 mph 42.6 mph 66 % 0.0 in 564.0 W/m2 CLR
11:46 7.2 °F 1.1 °F 1023.2 in NNW 42.6 mph 42.6 mph 65 % 0.0 in 545.0 W/m2 CLR
11:51 7.8 °F 1.8 °F 1023.2 in NNE 42.6 mph 42.6 mph 66 % 0.0 in 526.0 W/m2 CLR
11:56 7.2 °F 1.3 °F 1023.2 in North 42.6 mph 42.6 mph 66 % 0.0 in 573.0 W/m2 CLR
12:01 7.8 °F 2.1 °F 1023.2 in NNW 42.6 mph 42.6 mph 67 % 0.0 in 596.0 W/m2 CLR
12:06 7.8 °F 1.6 °F 1023.2 in North 42.6 mph 42.6 mph 65 % 0.0 in 538.0 W/m2 CLR
12:11 7.8 °F 1.6 °F 1022.9 in NNW 48.1 mph 48.1 mph 65 % 0.0 in 621.0 W/m2 CLR
12:16 8.3 °F 1.9 °F 1022.9 in NNE 25.9 mph 25.9 mph 64 % 0.0 in 682.0 W/m2 CLR
12:21 7.8 °F 0.5 °F 1023.2 in NNE 35.2 mph 35.2 mph 60 % 0.0 in 151.0 W/m2 CLR
12:26 7.2 °F -0.3 °F 1022.9 in NNE 37.0 mph 37.0 mph 59 % 0.0 in 594.0 W/m2 CLR
12:31 8.3 °F 0.6 °F 1022.9 in NNE 33.8 mph 33.8 mph 58 % 0.0 in 615.0 W/m2 CLR
12:36 8.3 °F 1.2 °F 1022.9 in North 25.9 mph 25.9 mph 61 % 0.0 in 645.0 W/m2 CLR
12:41 7.8 °F 0.3 °F 1022.6 in NNE 25.9 mph 25.9 mph 59 % 0.0 in 675.0 W/m2 CLR
12:46 8.3 °F -0.4 °F 1022.6 in North 42.6 mph 42.6 mph 54 % 0.0 in 659.0 W/m2 CLR
12:51 8.9 °F 0.1 °F 1022.6 in NNW 48.3 mph 48.3 mph 54 % 0.0 in 684.0 W/m2 CLR
12:56 9.4 °F 1.1 °F 1022.6 in NNW 31.5 mph 31.5 mph 56 % 0.0 in 744.0 W/m2 CLR
13:01 8.3 °F 1.0 °F 1022.6 in NNW 41.8 mph 41.8 mph 60 % 0.0 in 134.0 W/m2 CLR
13:06 7.8 °F 0.5 °F 1022.6 in North 37.0 mph 37.0 mph 60 % 0.0 in 297.0 W/m2 CLR
13:11 8.9 °F 2.2 °F 1022.6 in North 31.5 mph 31.5 mph 63 % 0.0 in 812.0 W/m2 CLR
13:16 8.9 °F 1.6 °F 1022.6 in North 40.7 mph 40.7 mph 60 % 0.0 in 290.0 W/m2 CLR
13:21 8.3 °F 1.4 °F 1022.2 in North 25.7 mph 25.7 mph 62 % 0.0 in 816.0 W/m2 CLR
13:26 8.9 °F 1.8 °F 1022.6 in NNW 30.6 mph 30.6 mph 61 % 0.0 in 241.0 W/m2 CLR
13:31 8.3 °F 0.8 °F 1022.2 in North 31.5 mph 31.5 mph 59 % 0.0 in 202.0 W/m2 CLR
13:36 7.8 °F 0.5 °F 1022.2 in North 40.7 mph 40.7 mph 60 % 0.0 in 199.0 W/m2 CLR
13:41 7.8 °F 0.7 °F 1021.9 in NNE 31.5 mph 31.5 mph 61 % 0.0 in 237.0 W/m2 CLR
13:46 8.3 °F 1.2 °F 1021.9 in North 33.3 mph 33.3 mph 61 % 0.0 in 148.0 W/m2 CLR
13:51 7.8 °F 0.7 °F 1021.9 in NNE 31.5 mph 31.5 mph 61 % 0.0 in 712.0 W/m2 CLR
13:56 8.9 °F 1.8 °F 1021.9 in NNE 35.2 mph 35.2 mph 61 % 0.0 in 717.0 W/m2 CLR
14:01 8.9 °F 1.8 °F 1021.9 in North 31.5 mph 31.5 mph 61 % 0.0 in 137.0 W/m2 CLR
14:06 8.9 °F 2.2 °F 1021.6 in North 38.9 mph 38.9 mph 63 % 0.0 in 626.0 W/m2 CLR
14:11 8.9 °F 1.8 °F 1021.6 in North 38.9 mph 38.9 mph 61 % 0.0 in 598.0 W/m2 CLR
14:16 9.4 °F 2.7 °F 1021.2 in NNW 42.6 mph 42.6 mph 63 % 0.0 in 596.0 W/m2 CLR
14:21 9.4 °F 2.5 °F 1021.2 in North 33.8 mph 33.8 mph 62 % 0.0 in 577.0 W/m2 CLR
14:26 9.4 °F 2.5 °F 1021.2 in NNW 35.2 mph 35.2 mph 62 % 0.0 in 570.0 W/m2 CLR
14:31 9.4 °F 2.5 °F 1021.2 in NNW 38.9 mph 38.9 mph 62 % 0.0 in 594.0 W/m2 CLR
14:36 9.4 °F 2.3 °F 1021.2 in NNW 40.2 mph 40.2 mph 61 % 0.0 in 564.0 W/m2 CLR
14:42 10.0 °F 3.1 °F 1021.2 in NW 42.6 mph 42.6 mph 62 % 0.0 in 554.0 W/m2 CLR
14:47 10.0 °F 2.8 °F 1021.2 in North 48.1 mph 48.1 mph 61 % 0.0 in 571.0 W/m2 CLR
14:52 10.0 °F 2.6 °F 1020.9 in North 37.0 mph 37.0 mph 60 % 0.0 in 132.0 W/m2 CLR
14:57 9.4 °F 1.8 °F 1020.9 in NNW 37.0 mph 37.0 mph 59 % 0.0 in 571.0 W/m2 CLR
15:02 9.4 °F 1.8 °F 1020.9 in North 25.9 mph 25.9 mph 59 % 0.0 in 555.0 W/m2 CLR
15:07 9.4 °F 1.6 °F 1020.9 in North 37.0 mph 37.0 mph 58 % 0.0 in 559.0 W/m2 CLR
15:12 10.6 °F 2.6 °F 1020.9 in North 33.3 mph 33.3 mph 58 % 0.0 in 555.0 W/m2 CLR
15:17 10.6 °F 2.6 °F 1020.5 in North 29.6 mph 29.6 mph 58 % 0.0 in 573.0 W/m2 CLR
15:22 10.6 °F 2.4 °F 1020.5 in NNW 33.3 mph 33.3 mph 57 % 0.0 in 513.0 W/m2 CLR
15:27 10.0 °F 1.9 °F 1020.5 in NNW 44.4 mph 44.4 mph 57 % 0.0 in 494.0 W/m2 CLR
15:32 10.6 °F 2.4 °F 1020.5 in North 38.9 mph 38.9 mph 57 % 0.0 in 473.0 W/m2 CLR
15:37 10.0 °F 1.9 °F 1020.5 in North 31.5 mph 31.5 mph 57 % 0.0 in 56.0 W/m2 CLR
15:42 9.4 °F 1.3 °F 1020.5 in NNW 42.6 mph 42.6 mph 57 % 0.0 in 432.0 W/m2 FEW
15:47 10.0 °F 1.9 °F 1020.5 in NW 24.1 mph 24.1 mph 57 % 0.0 in 420.0 W/m2 FEW
15:52 9.4 °F 1.3 °F 1020.5 in NNW 33.3 mph 33.3 mph 57 % 0.0 in 408.0 W/m2 CLR
15:57 10.0 °F 1.6 °F 1020.5 in North 35.2 mph 35.2 mph 56 % 0.0 in 396.0 W/m2 CLR
16:02 9.4 °F 0.8 °F 1020.5 in North 37.0 mph 37.0 mph 55 % 0.0 in 378.0 W/m2 CLR
16:07 10.0 °F 1.4 °F 1020.5 in North 35.2 mph 35.2 mph 55 % 0.0 in 367.0 W/m2 CLR
16:12 10.0 °F 1.6 °F 1020.5 in North 33.8 mph 33.8 mph 56 % 0.0 in 359.0 W/m2 CLR
16:17 9.4 °F 0.8 °F 1020.5 in North 31.5 mph 31.5 mph 55 % 0.0 in 341.0 W/m2 CLR
16:22 9.4 °F 1.1 °F 1020.5 in NNW 48.3 mph 48.3 mph 56 % 0.0 in 330.0 W/m2 CLR
16:27 9.4 °F 1.1 °F 1020.5 in North 35.2 mph 35.2 mph 56 % 0.0 in 318.0 W/m2 CLR
16:32 9.4 °F 1.3 °F 1020.5 in North 31.5 mph 31.5 mph 57 % 0.0 in 301.0 W/m2 CLR
16:37 8.9 °F 0.8 °F 1020.5 in NNW 35.2 mph 35.2 mph 57 % 0.0 in 51.0 W/m2 CLR
16:42 8.9 °F 1.1 °F 1020.5 in NNW 33.8 mph 33.8 mph 58 % 0.0 in 265.0 W/m2 CLR
16:47 9.4 °F 1.1 °F 1020.5 in NNW 46.3 mph 46.3 mph 56 % 0.0 in 250.0 W/m2 CLR
16:52 8.9 °F 0.6 °F 1020.5 in NNW 33.3 mph 33.3 mph 56 % 0.0 in 234.0 W/m2 CLR
16:57 8.9 °F 0.3 °F 1020.5 in North 40.7 mph 40.7 mph 55 % 0.0 in 174.0 W/m2 CLR
17:02 8.9 °F 0.6 °F 1020.5 in NW 37.0 mph 37.0 mph 56 % 0.0 in 199.0 W/m2 CLR
17:07 8.9 °F 0.8 °F 1020.5 in North 31.5 mph 31.5 mph 57 % 0.0 in 179.0 W/m2 CLR
17:12 8.9 °F 1.3 °F 1020.5 in NW 44.4 mph 44.4 mph 59 % 0.0 in 163.0 W/m2 CLR
17:17 8.3 °F 1.0 °F 1020.5 in North 43.4 mph 43.4 mph 60 % 0.0 in 116.0 W/m2 CLR
17:22 8.3 °F 1.2 °F 1020.9 in North 27.8 mph 27.8 mph 61 % 0.0 in 44.0 W/m2 FEW
17:27 8.3 °F 1.0 °F 1020.9 in NNW 42.6 mph 42.6 mph 60 % 0.0 in 39.0 W/m2 BKN
17:32 7.8 °F 0.5 °F 1020.9 in NNW 42.6 mph 42.6 mph 60 % 0.0 in 28.0 W/m2 BKN
17:37 7.8 °F 0.5 °F 1020.9 in NNW 31.5 mph 31.5 mph 60 % 0.0 in 40.0 W/m2 BKN
17:42 7.8 °F 0.7 °F 1021.2 in North 42.6 mph 42.6 mph 61 % 0.0 in 58.0 W/m2 SCT
17:47 7.8 °F 0.7 °F 1021.2 in NW 31.5 mph 31.5 mph 61 % 0.0 in 63.0 W/m2 SCT
17:52 7.8 °F 0.7 °F 1021.2 in NNW 27.8 mph 27.8 mph 61 % 0.0 in 47.0 W/m2 SCT
17:57 7.8 °F 0.9 °F 1021.2 in NNW 33.3 mph 33.3 mph 62 % 0.0 in 39.0 W/m2 BKN
18:02 7.2 °F 0.7 °F 1021.2 in North 37.0 mph 37.0 mph 63 % 0.0 in 21.0 W/m2 BKN
18:07 7.2 °F 0.8 °F 1021.2 in NNW 31.5 mph 31.5 mph 64 % 0.0 in 16.0 W/m2 BKN
18:12 7.2 °F 1.1 °F 1021.2 in NNW 32.2 mph 32.2 mph 65 % 0.0 in 12.0 W/m2 BKN
18:17 7.2 °F 1.1 °F 1021.2 in North 38.9 mph 38.9 mph 65 % 0.0 in 11.0 W/m2 BKN
18:22 6.7 °F 0.8 °F 1021.2 in NNW 31.5 mph 31.5 mph 66 % 0.0 in 7.0 W/m2 BKN
18:27 6.7 °F 0.8 °F 1021.6 in NW 31.5 mph 31.5 mph 66 % 0.0 in 5.0 W/m2 OVC
18:32 6.7 °F 0.8 °F 1021.6 in NW 31.5 mph 31.5 mph 66 % 0.0 in 0.0 W/m2 OVC
18:37 6.7 °F 0.8 °F 1021.9 in NNW 33.8 mph 33.8 mph 66 % 0.0 in 0.0 W/m2 OVC
18:42 6.7 °F 0.8 °F 1021.9 in NNW 25.9 mph 25.9 mph 66 % 0.0 in 0.0 W/m2 CLR
18:47 6.7 °F 0.9 °F 1021.9 in NNW 29.6 mph 29.6 mph 67 % 0.0 in 0.0 W/m2 CLR
18:52 6.1 °F 0.7 °F 1021.9 in NNW 29.6 mph 29.6 mph 68 % 0.0 in 0.0 W/m2 CLR
18:57 6.1 °F 0.7 °F 1021.9 in NNW 31.5 mph 31.5 mph 68 % 0.0 in 0.0 W/m2 CLR
19:02 6.1 °F 0.8 °F 1022.2 in North 25.9 mph 25.9 mph 69 % 0.0 in 0.0 W/m2 CLR
19:07 6.1 °F 0.8 °F 1022.2 in NW 27.8 mph 27.8 mph 69 % 0.0 in 0.0 W/m2 CLR
19:12 6.1 °F 0.8 °F 1022.2 in NNW 31.5 mph 31.5 mph 69 % 0.0 in 0.0 W/m2 CLR
19:17 6.1 °F 1.1 °F 1022.2 in NNW 44.4 mph 44.4 mph 70 % 0.0 in 0.0 W/m2 CLR
19:22 6.1 °F 1.1 °F 1022.2 in North 35.2 mph 35.2 mph 70 % 0.0 in 0.0 W/m2 CLR
19:27 6.1 °F 1.1 °F 1022.2 in NW 25.9 mph 25.9 mph 70 % 0.0 in 0.0 W/m2 CLR
19:32 5.6 °F 0.5 °F 1022.2 in WNW 22.2 mph 22.2 mph 70 % 0.0 in 0.0 W/m2 CLR
19:37 5.6 °F 0.5 °F 1022.6 in NW 24.1 mph 24.1 mph 70 % 0.0 in 0.0 W/m2 CLR
19:42 5.6 °F 0.5 °F 1022.6 in NW 29.0 mph 29.0 mph 70 % 0.0 in 0.0 W/m2 CLR
19:47 5.6 °F 0.5 °F 1022.6 in NNW 29.6 mph 29.6 mph 70 % 0.0 in 0.0 W/m2 CLR
19:52 5.6 °F 0.7 °F 1022.6 in NW 22.2 mph 22.2 mph 71 % 0.0 in 0.0 W/m2 CLR
19:57 5.6 °F 0.7 °F 1022.6 in NNW 24.1 mph 24.1 mph 71 % 0.0 in 0.0 W/m2 CLR
20:02 5.6 °F 0.7 °F 1022.2 in NNW 33.3 mph 33.3 mph 71 % 0.0 in 0.0 W/m2 CLR
20:07 5.6 °F 0.9 °F 1022.2 in NW 31.5 mph 31.5 mph 72 % 0.0 in 0.0 W/m2 CLR
20:12 5.6 °F 0.7 °F 1022.6 in WNW 24.1 mph 24.1 mph 71 % 0.0 in 0.0 W/m2 CLR
20:17 5.0 °F 0.2 °F 1022.6 in NW 31.5 mph 31.5 mph 71 % 0.0 in 0.0 W/m2 CLR
20:22 5.0 °F 0.2 °F 1022.6 in NW 24.1 mph 24.1 mph 71 % 0.0 in 0.0 W/m2 CLR
20:27 5.0 °F 0.4 °F 1022.6 in NW 24.1 mph 24.1 mph 72 % 0.0 in 0.0 W/m2 CLR
20:32 5.0 °F 0.4 °F 1022.6 in NW 24.1 mph 24.1 mph 72 % 0.0 in 0.0 W/m2 CLR
20:37 5.0 °F 0.6 °F 1022.6 in NNW 25.7 mph 25.7 mph 73 % 0.0 in 0.0 W/m2 CLR
20:43 5.0 °F 0.6 °F 1022.6 in NNW 27.8 mph 27.8 mph 73 % 0.0 in 0.0 W/m2 CLR
20:48 5.0 °F 0.6 °F 1022.6 in NNW 20.4 mph 20.4 mph 73 % 0.0 in 0.0 W/m2 CLR
20:53 5.0 °F 0.6 °F 1022.6 in NW 25.7 mph 25.7 mph 73 % 0.0 in 0.0 W/m2 CLR
20:58 5.0 °F 0.6 °F 1022.6 in NNW 20.4 mph 20.4 mph 73 % 0.0 in 0.0 W/m2 CLR
21:03 5.0 °F 0.7 °F 1022.6 in North 29.6 mph 29.6 mph 74 % 0.0 in 0.0 W/m2 CLR
21:08 5.0 °F 0.7 °F 1022.9 in NW 25.9 mph 25.9 mph 74 % 0.0 in 0.0 W/m2 CLR
21:13 5.0 °F 0.9 °F 1022.9 in NNW 29.6 mph 29.6 mph 75 % 0.0 in 0.0 W/m2 CLR
21:18 5.0 °F 0.9 °F 1022.6 in NNW 25.7 mph 25.7 mph 75 % 0.0 in 0.0 W/m2 CLR
21:23 5.0 °F 0.9 °F 1022.9 in NW 20.9 mph 20.9 mph 75 % 0.0 in 0.0 W/m2 CLR
21:28 5.0 °F 0.9 °F 1022.9 in WNW 24.1 mph 24.1 mph 75 % 0.0 in 0.0 W/m2 CLR
21:33 5.0 °F 0.9 °F 1022.9 in NW 24.1 mph 24.1 mph 75 % 0.0 in 0.0 W/m2 CLR
21:38 4.4 °F 0.4 °F 1022.9 in NW 16.7 mph 16.7 mph 75 % 0.0 in 0.0 W/m2 CLR
21:43 4.4 °F 0.4 °F 1022.9 in NW 25.9 mph 25.9 mph 75 % 0.0 in 0.0 W/m2 CLR
21:48 4.4 °F 0.4 °F 1022.9 in NNW 25.9 mph 25.9 mph 75 % 0.0 in 0.0 W/m2 CLR
21:53 4.4 °F 0.6 °F 1022.6 in NW 24.1 mph 24.1 mph 76 % 0.0 in 0.0 W/m2 CLR
21:58 4.4 °F 0.6 °F 1022.9 in NW 25.9 mph 25.9 mph 76 % 0.0 in 0.0 W/m2 CLR
22:03 4.4 °F 0.6 °F 1022.9 in North 20.4 mph 20.4 mph 76 % 0.0 in 0.0 W/m2 CLR
22:08 4.4 °F 0.6 °F 1022.9 in NW 20.4 mph 20.4 mph 76 % 0.0 in 0.0 W/m2 CLR
22:13 4.4 °F 0.6 °F 1022.9 in NW 24.1 mph 24.1 mph 76 % 0.0 in 0.0 W/m2 CLR
22:18 4.4 °F 0.6 °F 1022.9 in WNW 25.9 mph 25.9 mph 76 % 0.0 in 0.0 W/m2 CLR
22:23 4.4 °F 0.6 °F 1022.9 in WNW 16.7 mph 16.7 mph 76 % 0.0 in 0.0 W/m2 CLR
22:28 4.4 °F 0.6 °F 1022.9 in West 18.5 mph 18.5 mph 76 % 0.0 in 0.0 W/m2 CLR
22:33 4.4 °F 0.6 °F 1022.9 in WNW 16.7 mph 16.7 mph 76 % 0.0 in 0.0 W/m2 CLR
22:38 3.9 °F 0.2 °F 1023.2 in West 16.7 mph 16.7 mph 77 % 0.0 in 0.0 W/m2 CLR
22:43 3.9 °F 0.2 °F 1023.2 in West 14.8 mph 14.8 mph 77 % 0.0 in 0.0 W/m2 CLR
22:48 3.9 °F 0.4 °F 1023.2 in WNW 13.0 mph 13.0 mph 78 % 0.0 in 0.0 W/m2 CLR
22:53 3.9 °F 0.4 °F 1023.2 in West 16.7 mph 16.7 mph 78 % 0.0 in 0.0 W/m2 CLR
22:54 3.9 °F 0.4 °F 1023.2 in West 14.8 mph 14.8 mph 78 % 0.0 in 0.0 W/m2 CLR
22:59 3.3 °F 0.1 °F 1023.2 in WNW 16.7 mph 16.7 mph 79 % 0.0 in 0.0 W/m2 CLR
23:04 3.3 °F 0.1 °F 1023.2 in NW 13.0 mph 13.0 mph 79 % 0.0 in 0.0 W/m2 CLR
23:09 3.3 °F 0.2 °F 1023.2 in WNW 18.5 mph 18.5 mph 80 % 0.0 in 0.0 W/m2 CLR
23:14 3.3 °F 0.1 °F 1023.2 in NW 16.7 mph 16.7 mph 79 % 0.0 in 0.0 W/m2 CLR
23:19 3.3 °F 0.2 °F 1023.2 in NW 22.2 mph 22.2 mph 80 % 0.0 in 0.0 W/m2 CLR
23:24 3.3 °F 0.1 °F 1023.2 in NW 14.8 mph 14.8 mph 79 % 0.0 in 0.0 W/m2 CLR
23:29 3.9 °F 0.6 °F 1023.2 in NW 14.8 mph 14.8 mph 79 % 0.0 in 0.0 W/m2 CLR
23:34 3.9 °F 0.6 °F 1022.9 in WNW 16.7 mph 16.7 mph 79 % 0.0 in 0.0 W/m2 CLR
23:39 3.9 °F 0.8 °F 1022.9 in NW 18.5 mph 18.5 mph 80 % 0.0 in 0.0 W/m2 CLR
23:44 3.9 °F 0.6 °F 1022.9 in NW 20.4 mph 20.4 mph 79 % 0.0 in 0.0 W/m2 CLR
23:49 3.9 °F 0.6 °F 1022.9 in NW 18.5 mph 18.5 mph 79 % 0.0 in 0.0 W/m2 CLR
23:54 3.9 °F 0.8 °F 1022.9 in WNW 22.2 mph 22.2 mph 80 % 0.0 in 0.0 W/m2 CLR
23:59 3.9 °F 0.8 °F 1022.9 in WNW 16.7 mph 16.7 mph 80 % 0.0 in 0.0 W/m2 CLR
Lo Temps de Massalio
Compliments of Weather Underground - 1.25 mb